sensor_id;sensor_type;location;lat;lon;timestamp;temperature;humidity
11639;DHT22;5875;35.940;126.892;2022-08-14T00:01:30;30.20;99.90
11639;DHT22;5875;35.940;126.892;2022-08-14T00:03:57;30.20;99.90
11639;DHT22;5875;35.940;126.892;2022-08-14T00:06:24;30.20;99.90
11639;DHT22;5875;35.940;126.892;2022-08-14T00:08:51;30.10;99.90
11639;DHT22;5875;35.940;126.892;2022-08-14T00:11:18;30.10;99.90
11639;DHT22;5875;35.940;126.892;2022-08-14T00:13:46;30.10;99.90
11639;DHT22;5875;35.940;126.892;2022-08-14T00:16:13;30.10;99.90
11639;DHT22;5875;35.940;126.892;2022-08-14T00:18:41;30.10;99.90
11639;DHT22;5875;35.940;126.892;2022-08-14T00:21:08;30.00;99.90
11639;DHT22;5875;35.940;126.892;2022-08-14T00:23:36;30.00;99.90
11639;DHT22;5875;35.940;126.892;2022-08-14T00:26:03;30.00;99.90
11639;DHT22;5875;35.940;126.892;2022-08-14T00:28:30;30.00;99.90
11639;DHT22;5875;35.940;126.892;2022-08-14T00:30:57;30.10;99.90
11639;DHT22;5875;35.940;126.892;2022-08-14T00:33:26;30.10;99.90
11639;DHT22;5875;35.940;126.892;2022-08-14T00:35:54;30.00;99.90
11639;DHT22;5875;35.940;126.892;2022-08-14T00:38:22;30.10;99.90
11639;DHT22;5875;35.940;126.892;2022-08-14T00:40:49;30.10;99.90
11639;DHT22;5875;35.940;126.892;2022-08-14T00:43:17;30.10;99.90
11639;DHT22;5875;35.940;126.892;2022-08-14T00:45:44;30.20;99.90
11639;DHT22;5875;35.940;126.892;2022-08-14T00:48:11;30.10;99.90
11639;DHT22;5875;35.940;126.892;2022-08-14T00:50:39;30.10;99.90
11639;DHT22;5875;35.940;126.892;2022-08-14T00:53:06;30.10;99.90
11639;DHT22;5875;35.940;126.892;2022-08-14T00:55:35;30.20;99.90
11639;DHT22;5875;35.940;126.892;2022-08-14T00:58:07;30.20;99.90
11639;DHT22;5875;35.940;126.892;2022-08-14T01:00:52;30.20;99.90
11639;DHT22;5875;35.940;126.892;2022-08-14T01:03:21;30.30;99.90
11639;DHT22;5875;35.940;126.892;2022-08-14T01:05:50;30.50;99.90
11639;DHT22;5875;35.940;126.892;2022-08-14T01:08:27;30.50;99.90
11639;DHT22;5875;35.940;126.892;2022-08-14T01:10:56;30.50;99.90
11639;DHT22;5875;35.940;126.892;2022-08-14T01:13:34;30.50;99.90
11639;DHT22;5875;35.940;126.892;2022-08-14T01:16:06;30.50;99.90
11639;DHT22;5875;35.940;126.892;2022-08-14T01:18:33;30.80;99.90
11639;DHT22;5875;35.940;126.892;2022-08-14T01:21:36;31.30;99.90
11639;DHT22;5875;35.940;126.892;2022-08-14T01:24:06;31.40;99.90
11639;DHT22;5875;35.940;126.892;2022-08-14T01:26:34;31.50;99.90
11639;DHT22;5875;35.940;126.892;2022-08-14T01:29:03;31.20;99.90
11639;DHT22;5875;35.940;126.892;2022-08-14T01:31:35;31.10;99.90
11639;DHT22;5875;35.940;126.892;2022-08-14T01:34:14;31.10;99.90
11639;DHT22;5875;35.940;126.892;2022-08-14T01:36:41;31.00;99.90
11639;DHT22;5875;35.940;126.892;2022-08-14T01:39:14;30.90;99.90
11639;DHT22;5875;35.940;126.892;2022-08-14T01:41:44;31.00;99.90
11639;DHT22;5875;35.940;126.892;2022-08-14T01:44:14;31.00;99.90
11639;DHT22;5875;35.940;126.892;2022-08-14T01:46:42;31.10;99.90
11639;DHT22;5875;35.940;126.892;2022-08-14T01:49:14;31.50;99.90
11639;DHT22;5875;35.940;126.892;2022-08-14T01:51:42;31.60;99.90
11639;DHT22;5875;35.940;126.892;2022-08-14T01:54:17;32.20;99.90
11639;DHT22;5875;35.940;126.892;2022-08-14T01:56:51;32.40;99.90
11639;DHT22;5875;35.940;126.892;2022-08-14T01:59:32;33.10;99.90
11639;DHT22;5875;35.940;126.892;2022-08-14T02:02:04;33.30;99.90
11639;DHT22;5875;35.940;126.892;2022-08-14T02:04:38;33.70;99.90
11639;DHT22;5875;35.940;126.892;2022-08-14T02:07:07;33.60;99.90
11639;DHT22;5875;35.940;126.892;2022-08-14T02:09:35;33.30;99.90
11639;DHT22;5875;35.940;126.892;2022-08-14T02:12:06;33.30;99.90
11639;DHT22;5875;35.940;126.892;2022-08-14T02:14:34;33.30;99.90
11639;DHT22;5875;35.940;126.892;2022-08-14T02:17:03;33.20;99.90
11639;DHT22;5875;35.940;126.892;2022-08-14T02:19:35;33.60;99.90
11639;DHT22;5875;35.940;126.892;2022-08-14T02:22:02;33.50;99.90
11639;DHT22;5875;35.940;126.892;2022-08-14T02:24:30;33.30;99.90
11639;DHT22;5875;35.940;126.892;2022-08-14T02:26:59;33.70;99.90
11639;DHT22;5875;35.940;126.892;2022-08-14T02:29:29;33.70;99.90
11639;DHT22;5875;35.940;126.892;2022-08-14T02:31:59;33.50;99.90
11639;DHT22;5875;35.940;126.892;2022-08-14T02:34:30;33.70;99.90
11639;DHT22;5875;35.940;126.892;2022-08-14T02:37:11;33.70;99.90
11639;DHT22;5875;35.940;126.892;2022-08-14T02:39:43;34.20;99.90
11639;DHT22;5875;35.940;126.892;2022-08-14T02:42:13;34.20;99.90
11639;DHT22;5875;35.940;126.892;2022-08-14T02:44:42;34.30;99.90
11639;DHT22;5875;35.940;126.892;2022-08-14T02:47:09;34.20;99.90
11639;DHT22;5875;35.940;126.892;2022-08-14T02:49:37;34.40;99.90
11639;DHT22;5875;35.940;126.892;2022-08-14T02:52:05;34.80;99.90
11639;DHT22;5875;35.940;126.892;2022-08-14T02:54:33;35.10;99.90
11639;DHT22;5875;35.940;126.892;2022-08-14T02:57:02;35.60;99.90
11639;DHT22;5875;35.940;126.892;2022-08-14T02:59:34;35.20;99.90
11639;DHT22;5875;35.940;126.892;2022-08-14T03:02:03;34.80;99.90
11639;DHT22;5875;35.940;126.892;2022-08-14T03:04:31;34.40;99.90
11639;DHT22;5875;35.940;126.892;2022-08-14T03:06:58;34.20;99.90
11639;DHT22;5875;35.940;126.892;2022-08-14T03:09:26;34.40;99.90
11639;DHT22;5875;35.940;126.892;2022-08-14T03:11:53;34.80;99.90
11639;DHT22;5875;35.940;126.892;2022-08-14T03:14:21;35.30;99.90
11639;DHT22;5875;35.940;126.892;2022-08-14T03:16:51;35.20;99.90
11639;DHT22;5875;35.940;126.892;2022-08-14T03:19:18;35.10;99.90
11639;DHT22;5875;35.940;126.892;2022-08-14T03:21:45;35.30;99.90
11639;DHT22;5875;35.940;126.892;2022-08-14T03:24:12;35.10;99.90
11639;DHT22;5875;35.940;126.892;2022-08-14T03:26:45;34.80;99.90
11639;DHT22;5875;35.940;126.892;2022-08-14T03:29:15;34.80;99.90
11639;DHT22;5875;35.940;126.892;2022-08-14T03:31:46;35.00;99.90
11639;DHT22;5875;35.940;126.892;2022-08-14T03:34:17;34.90;99.90
11639;DHT22;5875;35.940;126.892;2022-08-14T03:36:47;34.80;99.90
11639;DHT22;5875;35.940;126.892;2022-08-14T03:39:20;34.60;99.90
11639;DHT22;5875;35.940;126.892;2022-08-14T03:41:54;34.50;99.90
11639;DHT22;5875;35.940;126.892;2022-08-14T03:44:22;34.40;99.90
11639;DHT22;5875;35.940;126.892;2022-08-14T03:46:49;34.40;99.90
11639;DHT22;5875;35.940;126.892;2022-08-14T03:49:19;34.30;99.90
11639;DHT22;5875;35.940;126.892;2022-08-14T03:51:47;34.20;99.90
11639;DHT22;5875;35.940;126.892;2022-08-14T03:54:15;34.20;99.90
11639;DHT22;5875;35.940;126.892;2022-08-14T03:56:42;34.20;99.90
11639;DHT22;5875;35.940;126.892;2022-08-14T03:59:11;34.60;99.90
11639;DHT22;5875;35.940;126.892;2022-08-14T04:01:39;34.70;99.90
11639;DHT22;5875;35.940;126.892;2022-08-14T04:04:07;34.70;99.90
11639;DHT22;5875;35.940;126.892;2022-08-14T04:06:36;34.60;99.90
11639;DHT22;5875;35.940;126.892;2022-08-14T04:09:06;34.40;99.90
11639;DHT22;5875;35.940;126.892;2022-08-14T04:11:35;34.40;99.90
11639;DHT22;5875;35.940;126.892;2022-08-14T04:14:06;34.40;99.90
11639;DHT22;5875;35.940;126.892;2022-08-14T04:16:33;34.40;99.90
11639;DHT22;5875;35.940;126.892;2022-08-14T04:19:01;34.60;99.90
11639;DHT22;5875;35.940;126.892;2022-08-14T04:21:30;34.50;99.90
11639;DHT22;5875;35.940;126.892;2022-08-14T04:23:59;34.50;99.90
11639;DHT22;5875;35.940;126.892;2022-08-14T04:26:28;34.30;99.90
11639;DHT22;5875;35.940;126.892;2022-08-14T04:28:56;34.10;99.90
11639;DHT22;5875;35.940;126.892;2022-08-14T04:31:24;34.00;99.90
11639;DHT22;5875;35.940;126.892;2022-08-14T04:33:52;34.10;99.90
11639;DHT22;5875;35.940;126.892;2022-08-14T04:36:20;34.00;99.90
11639;DHT22;5875;35.940;126.892;2022-08-14T04:38:47;34.00;99.90
11639;DHT22;5875;35.940;126.892;2022-08-14T04:41:36;33.70;99.90
11639;DHT22;5875;35.940;126.892;2022-08-14T04:44:21;33.70;99.90
11639;DHT22;5875;35.940;126.892;2022-08-14T04:46:48;33.80;99.90
11639;DHT22;5875;35.940;126.892;2022-08-14T04:49:33;33.50;99.90
11639;DHT22;5875;35.940;126.892;2022-08-14T04:52:02;33.50;99.90
11639;DHT22;5875;35.940;126.892;2022-08-14T04:54:30;33.50;99.90
11639;DHT22;5875;35.940;126.892;2022-08-14T04:56:57;33.40;99.90
11639;DHT22;5875;35.940;126.892;2022-08-14T04:59:25;33.40;99.90
11639;DHT22;5875;35.940;126.892;2022-08-14T05:01:52;34.00;99.90
11639;DHT22;5875;35.940;126.892;2022-08-14T05:04:20;34.20;99.90
11639;DHT22;5875;35.940;126.892;2022-08-14T05:06:51;34.60;99.90
11639;DHT22;5875;35.940;126.892;2022-08-14T05:09:19;34.60;99.90
11639;DHT22;5875;35.940;126.892;2022-08-14T05:11:46;34.50;99.90
11639;DHT22;5875;35.940;126.892;2022-08-14T05:14:15;34.30;99.90
11639;DHT22;5875;35.940;126.892;2022-08-14T05:16:44;34.40;99.90
11639;DHT22;5875;35.940;126.892;2022-08-14T05:19:11;34.40;99.90
11639;DHT22;5875;35.940;126.892;2022-08-14T05:21:40;34.20;99.90
11639;DHT22;5875;35.940;126.892;2022-08-14T05:24:08;34.00;99.90
11639;DHT22;5875;35.940;126.892;2022-08-14T05:26:38;34.00;99.90
11639;DHT22;5875;35.940;126.892;2022-08-14T05:29:06;34.00;99.90
11639;DHT22;5875;35.940;126.892;2022-08-14T05:31:35;34.00;99.90
11639;DHT22;5875;35.940;126.892;2022-08-14T05:34:08;33.90;99.90
11639;DHT22;5875;35.940;126.892;2022-08-14T05:36:36;33.90;99.90
11639;DHT22;5875;35.940;126.892;2022-08-14T05:39:04;33.80;99.90
11639;DHT22;5875;35.940;126.892;2022-08-14T05:41:32;33.70;99.90
11639;DHT22;5875;35.940;126.892;2022-08-14T05:44:00;33.70;99.90
11639;DHT22;5875;35.940;126.892;2022-08-14T05:46:27;33.70;99.90
11639;DHT22;5875;35.940;126.892;2022-08-14T05:48:56;34.00;99.90
11639;DHT22;5875;35.940;126.892;2022-08-14T05:51:24;34.00;99.90
11639;DHT22;5875;35.940;126.892;2022-08-14T05:53:52;33.90;99.90
11639;DHT22;5875;35.940;126.892;2022-08-14T05:56:19;34.00;99.90
11639;DHT22;5875;35.940;126.892;2022-08-14T05:58:48;33.90;99.90
11639;DHT22;5875;35.940;126.892;2022-08-14T06:01:16;33.80;99.90
11639;DHT22;5875;35.940;126.892;2022-08-14T06:03:43;33.90;99.90
11639;DHT22;5875;35.940;126.892;2022-08-14T06:06:10;33.80;99.90
11639;DHT22;5875;35.940;126.892;2022-08-14T06:08:38;33.70;99.90
11639;DHT22;5875;35.940;126.892;2022-08-14T06:11:07;33.90;99.90
11639;DHT22;5875;35.940;126.892;2022-08-14T06:13:42;33.80;99.90
11639;DHT22;5875;35.940;126.892;2022-08-14T06:16:09;34.20;99.90
11639;DHT22;5875;35.940;126.892;2022-08-14T06:18:36;34.10;99.90
11639;DHT22;5875;35.940;126.892;2022-08-14T06:21:05;33.90;99.90
11639;DHT22;5875;35.940;126.892;2022-08-14T06:23:32;33.90;99.90
11639;DHT22;5875;35.940;126.892;2022-08-14T06:25:59;33.80;99.90
11639;DHT22;5875;35.940;126.892;2022-08-14T06:28:27;33.80;99.90
11639;DHT22;5875;35.940;126.892;2022-08-14T06:30:55;33.80;99.90
11639;DHT22;5875;35.940;126.892;2022-08-14T06:33:22;33.70;99.90
11639;DHT22;5875;35.940;126.892;2022-08-14T06:35:50;33.60;99.90
11639;DHT22;5875;35.940;126.892;2022-08-14T06:38:19;33.50;99.90
11639;DHT22;5875;35.940;126.892;2022-08-14T06:40:48;33.40;99.90
11639;DHT22;5875;35.940;126.892;2022-08-14T06:43:17;33.30;99.90
11639;DHT22;5875;35.940;126.892;2022-08-14T06:45:46;33.40;99.90
11639;DHT22;5875;35.940;126.892;2022-08-14T06:48:16;33.20;99.90
11639;DHT22;5875;35.940;126.892;2022-08-14T06:50:44;33.20;99.90
11639;DHT22;5875;35.940;126.892;2022-08-14T06:53:12;33.30;99.90
11639;DHT22;5875;35.940;126.892;2022-08-14T06:55:41;33.40;99.90
11639;DHT22;5875;35.940;126.892;2022-08-14T06:58:13;33.40;99.90
11639;DHT22;5875;35.940;126.892;2022-08-14T07:00:41;33.30;99.90
11639;DHT22;5875;35.940;126.892;2022-08-14T07:03:31;33.20;99.90
11639;DHT22;5875;35.940;126.892;2022-08-14T07:06:17;33.20;99.90
11639;DHT22;5875;35.940;126.892;2022-08-14T07:08:44;33.20;99.90
11639;DHT22;5875;35.940;126.892;2022-08-14T07:11:12;33.10;99.90
11639;DHT22;5875;35.940;126.892;2022-08-14T07:13:42;33.00;99.90
11639;DHT22;5875;35.940;126.892;2022-08-14T07:16:09;32.80;99.90
11639;DHT22;5875;35.940;126.892;2022-08-14T07:18:38;32.70;99.90
11639;DHT22;5875;35.940;126.892;2022-08-14T07:21:07;32.60;99.90
11639;DHT22;5875;35.940;126.892;2022-08-14T07:23:35;32.50;99.90
11639;DHT22;5875;35.940;126.892;2022-08-14T07:26:03;32.40;99.90
11639;DHT22;5875;35.940;126.892;2022-08-14T07:28:36;32.30;99.90
11639;DHT22;5875;35.940;126.892;2022-08-14T07:31:07;32.20;99.90
11639;DHT22;5875;35.940;126.892;2022-08-14T07:33:41;32.20;99.90
11639;DHT22;5875;35.940;126.892;2022-08-14T07:36:12;32.20;99.90
11639;DHT22;5875;35.940;126.892;2022-08-14T07:38:40;32.10;99.90
11639;DHT22;5875;35.940;126.892;2022-08-14T07:41:09;32.10;99.90
11639;DHT22;5875;35.940;126.892;2022-08-14T07:43:36;32.10;99.90
11639;DHT22;5875;35.940;126.892;2022-08-14T07:46:05;32.10;99.90
11639;DHT22;5875;35.940;126.892;2022-08-14T07:48:36;32.00;99.90
11639;DHT22;5875;35.940;126.892;2022-08-14T07:51:04;32.00;99.90
11639;DHT22;5875;35.940;126.892;2022-08-14T07:53:31;31.90;99.90
11639;DHT22;5875;35.940;126.892;2022-08-14T07:55:59;31.90;99.90
11639;DHT22;5875;35.940;126.892;2022-08-14T07:58:26;31.90;99.90
11639;DHT22;5875;35.940;126.892;2022-08-14T08:00:54;31.80;99.90
11639;DHT22;5875;35.940;126.892;2022-08-14T08:03:23;31.80;99.90
11639;DHT22;5875;35.940;126.892;2022-08-14T08:05:52;31.70;99.90
11639;DHT22;5875;35.940;126.892;2022-08-14T08:08:20;31.70;99.90
11639;DHT22;5875;35.940;126.892;2022-08-14T08:10:48;31.70;99.90
11639;DHT22;5875;35.940;126.892;2022-08-14T08:13:20;31.60;99.90
11639;DHT22;5875;35.940;126.892;2022-08-14T08:15:50;31.60;99.90
11639;DHT22;5875;35.940;126.892;2022-08-14T08:18:23;31.60;99.90
11639;DHT22;5875;35.940;126.892;2022-08-14T08:20:52;31.50;99.90
11639;DHT22;5875;35.940;126.892;2022-08-14T08:23:22;31.50;99.90
11639;DHT22;5875;35.940;126.892;2022-08-14T08:25:51;31.50;99.90
11639;DHT22;5875;35.940;126.892;2022-08-14T08:28:23;31.40;99.90
11639;DHT22;5875;35.940;126.892;2022-08-14T08:31:06;31.40;99.90
11639;DHT22;5875;35.940;126.892;2022-08-14T08:33:34;31.30;99.90
11639;DHT22;5875;35.940;126.892;2022-08-14T08:36:07;31.20;99.90
11639;DHT22;5875;35.940;126.892;2022-08-14T08:38:36;31.20;99.90
11639;DHT22;5875;35.940;126.892;2022-08-14T08:41:03;31.10;99.90
11639;DHT22;5875;35.940;126.892;2022-08-14T08:43:35;31.10;99.90
11639;DHT22;5875;35.940;126.892;2022-08-14T08:46:05;31.10;99.90
11639;DHT22;5875;35.940;126.892;2022-08-14T08:48:51;31.00;99.90
11639;DHT22;5875;35.940;126.892;2022-08-14T08:56:40;31.00;99.90
11639;DHT22;5875;35.940;126.892;2022-08-14T08:59:21;30.90;99.90
11639;DHT22;5875;35.940;126.892;2022-08-14T09:02:03;30.90;99.90
11639;DHT22;5875;35.940;126.892;2022-08-14T09:04:42;30.90;99.90
11639;DHT22;5875;35.940;126.892;2022-08-14T09:07:13;30.90;99.90
11639;DHT22;5875;35.940;126.892;2022-08-14T09:09:40;30.80;99.90
11639;DHT22;5875;35.940;126.892;2022-08-14T09:12:19;30.80;99.90
11639;DHT22;5875;35.940;126.892;2022-08-14T09:14:49;30.80;99.90
11639;DHT22;5875;35.940;126.892;2022-08-14T09:17:18;30.80;99.90
11639;DHT22;5875;35.940;126.892;2022-08-14T09:19:46;30.80;99.90
11639;DHT22;5875;35.940;126.892;2022-08-14T09:22:14;30.70;99.90
11639;DHT22;5875;35.940;126.892;2022-08-14T09:24:43;30.70;99.90
11639;DHT22;5875;35.940;126.892;2022-08-14T09:27:12;30.60;99.90
11639;DHT22;5875;35.940;126.892;2022-08-14T09:29:40;30.50;99.90
11639;DHT22;5875;35.940;126.892;2022-08-14T09:32:08;30.50;99.90
11639;DHT22;5875;35.940;126.892;2022-08-14T09:40:54;30.50;99.90
11639;DHT22;5875;35.940;126.892;2022-08-14T09:43:44;30.40;99.90
11639;DHT22;5875;35.940;126.892;2022-08-14T09:46:13;30.40;99.90
11639;DHT22;5875;35.940;126.892;2022-08-14T09:48:41;30.40;99.90
11639;DHT22;5875;35.940;126.892;2022-08-14T09:51:21;30.40;99.90
11639;DHT22;5875;35.940;126.892;2022-08-14T09:56:26;30.30;99.90
11639;DHT22;5875;35.940;126.892;2022-08-14T09:58:57;30.20;99.90
11639;DHT22;5875;35.940;126.892;2022-08-14T10:01:35;30.20;99.90
11639;DHT22;5875;35.940;126.892;2022-08-14T10:04:17;30.10;99.90
11639;DHT22;5875;35.940;126.892;2022-08-14T10:06:46;30.10;99.90
11639;DHT22;5875;35.940;126.892;2022-08-14T10:09:13;30.00;99.90
11639;DHT22;5875;35.940;126.892;2022-08-14T10:11:41;30.10;99.90
11639;DHT22;5875;35.940;126.892;2022-08-14T10:14:21;30.10;99.90
11639;DHT22;5875;35.940;126.892;2022-08-14T10:16:56;30.00;99.90
11639;DHT22;5875;35.940;126.892;2022-08-14T10:19:25;30.00;99.90
11639;DHT22;5875;35.940;126.892;2022-08-14T10:22:06;30.00;99.90
11639;DHT22;5875;35.940;126.892;2022-08-14T10:24:39;29.90;99.90
11639;DHT22;5875;35.940;126.892;2022-08-14T10:27:23;29.80;99.90
11639;DHT22;5875;35.940;126.892;2022-08-14T10:29:56;29.90;99.90
11639;DHT22;5875;35.940;126.892;2022-08-14T10:32:27;29.80;99.90
11639;DHT22;5875;35.940;126.892;2022-08-14T10:35:09;29.80;99.90
11639;DHT22;5875;35.940;126.892;2022-08-14T10:37:38;29.70;99.90
11639;DHT22;5875;35.940;126.892;2022-08-14T10:40:06;29.70;99.90
11639;DHT22;5875;35.940;126.892;2022-08-14T10:42:36;29.70;99.90
11639;DHT22;5875;35.940;126.892;2022-08-14T10:45:23;29.60;99.90
11639;DHT22;5875;35.940;126.892;2022-08-14T10:47:51;29.50;99.90
11639;DHT22;5875;35.940;126.892;2022-08-14T10:50:33;29.50;99.90
11639;DHT22;5875;35.940;126.892;2022-08-14T10:53:01;29.40;99.90
11639;DHT22;5875;35.940;126.892;2022-08-14T10:55:33;29.30;99.90
11639;DHT22;5875;35.940;126.892;2022-08-14T10:58:07;29.30;99.90
11639;DHT22;5875;35.940;126.892;2022-08-14T11:00:39;29.30;99.90
11639;DHT22;5875;35.940;126.892;2022-08-14T11:03:07;29.20;99.90
11639;DHT22;5875;35.940;126.892;2022-08-14T11:05:49;29.20;99.90
11639;DHT22;5875;35.940;126.892;2022-08-14T11:08:30;29.20;99.90
11639;DHT22;5875;35.940;126.892;2022-08-14T11:11:03;29.10;99.90
11639;DHT22;5875;35.940;126.892;2022-08-14T11:13:31;29.10;99.90
11639;DHT22;5875;35.940;126.892;2022-08-14T11:16:00;29.00;99.90
11639;DHT22;5875;35.940;126.892;2022-08-14T11:18:28;29.00;99.90
11639;DHT22;5875;35.940;126.892;2022-08-14T11:20:59;29.00;99.90
11639;DHT22;5875;35.940;126.892;2022-08-14T11:23:29;28.90;99.90
11639;DHT22;5875;35.940;126.892;2022-08-14T11:25:58;28.90;99.90
11639;DHT22;5875;35.940;126.892;2022-08-14T11:28:30;28.90;99.90
11639;DHT22;5875;35.940;126.892;2022-08-14T11:30:58;28.90;99.90
11639;DHT22;5875;35.940;126.892;2022-08-14T11:33:28;28.90;99.90
11639;DHT22;5875;35.940;126.892;2022-08-14T11:35:58;28.80;99.90
11639;DHT22;5875;35.940;126.892;2022-08-14T11:38:37;28.80;99.90
11639;DHT22;5875;35.940;126.892;2022-08-14T11:41:04;28.80;99.90
11639;DHT22;5875;35.940;126.892;2022-08-14T11:43:41;28.80;99.90
11639;DHT22;5875;35.940;126.892;2022-08-14T11:46:10;28.80;99.90
11639;DHT22;5875;35.940;126.892;2022-08-14T11:48:53;28.80;99.90
11639;DHT22;5875;35.940;126.892;2022-08-14T11:51:22;28.80;99.90
11639;DHT22;5875;35.940;126.892;2022-08-14T11:54:12;28.70;99.90
11639;DHT22;5875;35.940;126.892;2022-08-14T11:56:40;28.70;99.90
11639;DHT22;5875;35.940;126.892;2022-08-14T11:59:15;28.70;99.90
11639;DHT22;5875;35.940;126.892;2022-08-14T12:01:48;28.60;99.90
11639;DHT22;5875;35.940;126.892;2022-08-14T12:04:17;28.60;99.90
11639;DHT22;5875;35.940;126.892;2022-08-14T12:06:49;28.60;99.90
11639;DHT22;5875;35.940;126.892;2022-08-14T12:09:28;28.50;99.90
11639;DHT22;5875;35.940;126.892;2022-08-14T12:11:56;28.60;99.90
11639;DHT22;5875;35.940;126.892;2022-08-14T12:14:23;28.60;99.90
11639;DHT22;5875;35.940;126.892;2022-08-14T12:17:07;28.60;99.90
11639;DHT22;5875;35.940;126.892;2022-08-14T12:19:45;28.60;99.90
11639;DHT22;5875;35.940;126.892;2022-08-14T12:22:13;28.50;99.90
11639;DHT22;5875;35.940;126.892;2022-08-14T12:24:42;28.50;99.90
11639;DHT22;5875;35.940;126.892;2022-08-14T12:27:10;28.50;99.90
11639;DHT22;5875;35.940;126.892;2022-08-14T12:29:51;28.50;99.90
11639;DHT22;5875;35.940;126.892;2022-08-14T12:32:18;28.40;99.90
11639;DHT22;5875;35.940;126.892;2022-08-14T12:34:52;28.40;99.90
11639;DHT22;5875;35.940;126.892;2022-08-14T12:37:28;28.40;99.90
11639;DHT22;5875;35.940;126.892;2022-08-14T12:40:09;28.40;99.90
11639;DHT22;5875;35.940;126.892;2022-08-14T12:42:36;28.30;99.90
11639;DHT22;5875;35.940;126.892;2022-08-14T12:45:05;28.40;99.90
11639;DHT22;5875;35.940;126.892;2022-08-14T12:47:33;28.30;99.90
11639;DHT22;5875;35.940;126.892;2022-08-14T12:50:00;28.30;99.90
11639;DHT22;5875;35.940;126.892;2022-08-14T12:52:30;28.30;99.90
11639;DHT22;5875;35.940;126.892;2022-08-14T12:55:04;28.30;99.90
11639;DHT22;5875;35.940;126.892;2022-08-14T12:57:42;28.30;99.90
11639;DHT22;5875;35.940;126.892;2022-08-14T13:00:13;28.30;99.90
11639;DHT22;5875;35.940;126.892;2022-08-14T13:02:44;28.30;99.90
11639;DHT22;5875;35.940;126.892;2022-08-14T13:05:13;28.30;99.90
11639;DHT22;5875;35.940;126.892;2022-08-14T13:07:41;28.10;99.90
11639;DHT22;5875;35.940;126.892;2022-08-14T13:10:10;27.90;99.90
11639;DHT22;5875;35.940;126.892;2022-08-14T13:12:41;28.00;99.90
11639;DHT22;5875;35.940;126.892;2022-08-14T13:15:10;28.10;99.90
11639;DHT22;5875;35.940;126.892;2022-08-14T13:17:43;28.20;99.90
11639;DHT22;5875;35.940;126.892;2022-08-14T13:20:12;28.20;99.90
11639;DHT22;5875;35.940;126.892;2022-08-14T13:22:41;28.30;99.90
11639;DHT22;5875;35.940;126.892;2022-08-14T13:25:12;28.30;99.90
11639;DHT22;5875;35.940;126.892;2022-08-14T13:27:48;28.20;99.90
11639;DHT22;5875;35.940;126.892;2022-08-14T13:30:19;28.20;99.90
11639;DHT22;5875;35.940;126.892;2022-08-14T13:32:47;28.20;99.90
11639;DHT22;5875;35.940;126.892;2022-08-14T13:35:16;28.20;99.90
11639;DHT22;5875;35.940;126.892;2022-08-14T13:37:45;28.20;99.90
11639;DHT22;5875;35.940;126.892;2022-08-14T13:40:17;28.20;99.90
11639;DHT22;5875;35.940;126.892;2022-08-14T13:42:47;28.20;99.90
11639;DHT22;5875;35.940;126.892;2022-08-14T13:45:17;28.20;99.90
11639;DHT22;5875;35.940;126.892;2022-08-14T13:47:46;28.20;99.90
11639;DHT22;5875;35.940;126.892;2022-08-14T13:50:14;28.10;99.90
11639;DHT22;5875;35.940;126.892;2022-08-14T13:52:45;28.10;99.90
11639;DHT22;5875;35.940;126.892;2022-08-14T13:55:24;28.20;99.90
11639;DHT22;5875;35.940;126.892;2022-08-14T13:57:59;28.20;99.90
11639;DHT22;5875;35.940;126.892;2022-08-14T14:00:27;28.20;99.90
11639;DHT22;5875;35.940;126.892;2022-08-14T14:02:54;28.10;99.90
11639;DHT22;5875;35.940;126.892;2022-08-14T14:05:24;28.10;99.90
11639;DHT22;5875;35.940;126.892;2022-08-14T14:07:53;28.10;99.90
11639;DHT22;5875;35.940;126.892;2022-08-14T14:10:21;27.80;99.90
11639;DHT22;5875;35.940;126.892;2022-08-14T14:12:49;27.70;99.90
11639;DHT22;5875;35.940;126.892;2022-08-14T14:15:19;27.60;99.90
11639;DHT22;5875;35.940;126.892;2022-08-14T14:17:47;27.50;99.90
11639;DHT22;5875;35.940;126.892;2022-08-14T14:20:18;27.50;99.90
11639;DHT22;5875;35.940;126.892;2022-08-14T14:22:47;27.50;99.90
11639;DHT22;5875;35.940;126.892;2022-08-14T14:25:17;27.50;99.90
11639;DHT22;5875;35.940;126.892;2022-08-14T14:27:46;27.40;99.90
11639;DHT22;5875;35.940;126.892;2022-08-14T14:30:15;27.40;99.90
11639;DHT22;5875;35.940;126.892;2022-08-14T14:32:46;27.40;99.90
11639;DHT22;5875;35.940;126.892;2022-08-14T14:35:17;27.30;99.90
11639;DHT22;5875;35.940;126.892;2022-08-14T14:37:48;27.30;99.90
11639;DHT22;5875;35.940;126.892;2022-08-14T14:40:16;27.30;99.90
11639;DHT22;5875;35.940;126.892;2022-08-14T14:42:50;27.30;99.90
11639;DHT22;5875;35.940;126.892;2022-08-14T14:45:20;27.30;99.90
11639;DHT22;5875;35.940;126.892;2022-08-14T14:47:51;27.30;99.90
11639;DHT22;5875;35.940;126.892;2022-08-14T14:50:19;27.20;99.90
11639;DHT22;5875;35.940;126.892;2022-08-14T14:52:47;27.20;99.90
11639;DHT22;5875;35.940;126.892;2022-08-14T14:55:16;27.20;99.90
11639;DHT22;5875;35.940;126.892;2022-08-14T14:57:45;27.20;99.90
11639;DHT22;5875;35.940;126.892;2022-08-14T15:00:18;27.20;99.90
11639;DHT22;5875;35.940;126.892;2022-08-14T15:02:51;27.30;99.90
11639;DHT22;5875;35.940;126.892;2022-08-14T15:05:20;27.20;99.90
11639;DHT22;5875;35.940;126.892;2022-08-14T15:07:50;27.20;99.90
11639;DHT22;5875;35.940;126.892;2022-08-14T15:10:19;27.20;99.90
11639;DHT22;5875;35.940;126.892;2022-08-14T15:12:46;27.20;99.90
11639;DHT22;5875;35.940;126.892;2022-08-14T15:15:14;27.20;99.90
11639;DHT22;5875;35.940;126.892;2022-08-14T15:17:41;27.30;99.90
11639;DHT22;5875;35.940;126.892;2022-08-14T15:20:13;27.30;99.90
11639;DHT22;5875;35.940;126.892;2022-08-14T15:22:41;27.30;99.90
11639;DHT22;5875;35.940;126.892;2022-08-14T15:25:10;27.40;99.90
11639;DHT22;5875;35.940;126.892;2022-08-14T15:27:40;27.30;99.90
11639;DHT22;5875;35.940;126.892;2022-08-14T15:30:09;27.40;99.90
11639;DHT22;5875;35.940;126.892;2022-08-14T15:32:36;27.40;99.90
11639;DHT22;5875;35.940;126.892;2022-08-14T15:35:04;27.40;99.90
11639;DHT22;5875;35.940;126.892;2022-08-14T15:37:31;27.30;99.90
11639;DHT22;5875;35.940;126.892;2022-08-14T15:40:00;27.30;99.90
11639;DHT22;5875;35.940;126.892;2022-08-14T15:42:27;27.30;99.90
11639;DHT22;5875;35.940;126.892;2022-08-14T15:44:55;27.20;99.90
11639;DHT22;5875;35.940;126.892;2022-08-14T15:47:22;27.20;99.90
11639;DHT22;5875;35.940;126.892;2022-08-14T15:49:51;27.10;99.90